sensor_id;sensor_type;location;lat;lon;timestamp;P1;durP1;ratioP1;P2;durP2;ratioP2
26963;SDS011;14521;48.148;-1.656;2023-05-24T00:01:20;3.83;;;1.70;;
26963;SDS011;14521;48.148;-1.656;2023-05-24T00:04:46;3.63;;;1.55;;
26963;SDS011;14521;48.148;-1.656;2023-05-24T00:08:10;3.47;;;1.13;;
26963;SDS011;14521;48.148;-1.656;2023-05-24T00:11:32;3.22;;;1.38;;
26963;SDS011;14521;48.148;-1.656;2023-05-24T00:14:54;2.65;;;1.27;;
26963;SDS011;14521;48.148;-1.656;2023-05-24T00:18:16;3.75;;;1.48;;
26963;SDS011;14521;48.148;-1.656;2023-05-24T00:21:39;2.30;;;1.13;;
26963;SDS011;14521;48.148;-1.656;2023-05-24T00:25:02;3.03;;;1.60;;
26963;SDS011;14521;48.148;-1.656;2023-05-24T00:28:24;2.95;;;1.50;;
26963;SDS011;14521;48.148;-1.656;2023-05-24T00:31:46;3.67;;;1.38;;
26963;SDS011;14521;48.148;-1.656;2023-05-24T00:35:08;2.67;;;1.73;;
26963;SDS011;14521;48.148;-1.656;2023-05-24T00:38:31;4.28;;;1.40;;
26963;SDS011;14521;48.148;-1.656;2023-05-24T00:41:53;3.28;;;1.40;;
26963;SDS011;14521;48.148;-1.656;2023-05-24T00:45:15;5.93;;;1.70;;
26963;SDS011;14521;48.148;-1.656;2023-05-24T00:48:38;2.47;;;1.50;;
26963;SDS011;14521;48.148;-1.656;2023-05-24T00:52:00;2.83;;;1.23;;
26963;SDS011;14521;48.148;-1.656;2023-05-24T00:55:23;3.42;;;1.27;;
26963;SDS011;14521;48.148;-1.656;2023-05-24T00:58:45;2.72;;;1.42;;
26963;SDS011;14521;48.148;-1.656;2023-05-24T01:02:08;4.10;;;1.23;;
26963;SDS011;14521;48.148;-1.656;2023-05-24T01:05:30;2.35;;;0.90;;
26963;SDS011;14521;48.148;-1.656;2023-05-24T01:15:58;1.98;;;1.30;;
26963;SDS011;14521;48.148;-1.656;2023-05-24T01:23:18;2.47;;;1.13;;
26963;SDS011;14521;48.148;-1.656;2023-05-24T01:27:02;3.33;;;1.00;;
26963;SDS011;14521;48.148;-1.656;2023-05-24T01:30:25;2.03;;;1.50;;
26963;SDS011;14521;48.148;-1.656;2023-05-24T01:33:50;3.13;;;1.05;;
26963;SDS011;14521;48.148;-1.656;2023-05-24T01:37:13;2.95;;;1.13;;
26963;SDS011;14521;48.148;-1.656;2023-05-24T01:40:35;2.25;;;1.20;;
26963;SDS011;14521;48.148;-1.656;2023-05-24T01:44:02;3.92;;;1.42;;
26963;SDS011;14521;48.148;-1.656;2023-05-24T01:51:44;2.80;;;1.38;;
26963;SDS011;14521;48.148;-1.656;2023-05-24T01:55:12;1.92;;;1.08;;
26963;SDS011;14521;48.148;-1.656;2023-05-24T01:58:38;1.00;;;0.70;;
26963;SDS011;14521;48.148;-1.656;2023-05-24T02:02:02;1.35;;;0.93;;
26963;SDS011;14521;48.148;-1.656;2023-05-24T02:05:25;2.35;;;1.02;;
26963;SDS011;14521;48.148;-1.656;2023-05-24T02:08:47;2.45;;;0.95;;
26963;SDS011;14521;48.148;-1.656;2023-05-24T02:12:09;2.35;;;1.05;;
26963;SDS011;14521;48.148;-1.656;2023-05-24T02:15:33;2.80;;;1.10;;
26963;SDS011;14521;48.148;-1.656;2023-05-24T02:18:56;2.10;;;1.27;;
26963;SDS011;14521;48.148;-1.656;2023-05-24T02:22:19;2.10;;;1.30;;
26963;SDS011;14521;48.148;-1.656;2023-05-24T02:25:42;1.48;;;1.20;;
26963;SDS011;14521;48.148;-1.656;2023-05-24T02:29:05;2.10;;;0.80;;
26963;SDS011;14521;48.148;-1.656;2023-05-24T02:32:27;3.58;;;1.13;;
26963;SDS011;14521;48.148;-1.656;2023-05-24T02:35:50;1.88;;;1.00;;
26963;SDS011;14521;48.148;-1.656;2023-05-24T02:39:12;2.70;;;1.00;;
26963;SDS011;14521;48.148;-1.656;2023-05-24T02:42:35;0.90;;;0.90;;
26963;SDS011;14521;48.148;-1.656;2023-05-24T02:45:57;2.53;;;0.90;;
26963;SDS011;14521;48.148;-1.656;2023-05-24T02:49:20;1.27;;;0.90;;
26963;SDS011;14521;48.148;-1.656;2023-05-24T02:52:42;2.00;;;1.00;;
26963;SDS011;14521;48.148;-1.656;2023-05-24T02:56:04;1.85;;;0.88;;
26963;SDS011;14521;48.148;-1.656;2023-05-24T02:59:29;2.53;;;1.23;;
26963;SDS011;14521;48.148;-1.656;2023-05-24T03:02:51;1.75;;;0.88;;
26963;SDS011;14521;48.148;-1.656;2023-05-24T03:06:14;2.20;;;0.85;;
26963;SDS011;14521;48.148;-1.656;2023-05-24T03:09:36;1.42;;;0.73;;
26963;SDS011;14521;48.148;-1.656;2023-05-24T03:12:59;0.95;;;0.80;;
26963;SDS011;14521;48.148;-1.656;2023-05-24T03:16:22;2.55;;;0.80;;
26963;SDS011;14521;48.148;-1.656;2023-05-24T03:19:45;1.38;;;0.80;;
26963;SDS011;14521;48.148;-1.656;2023-05-24T03:23:07;1.08;;;0.73;;
26963;SDS011;14521;48.148;-1.656;2023-05-24T03:26:30;1.25;;;0.98;;
26963;SDS011;14521;48.148;-1.656;2023-05-24T03:29:52;2.25;;;1.10;;
26963;SDS011;14521;48.148;-1.656;2023-05-24T03:33:17;2.95;;;1.05;;
26963;SDS011;14521;48.148;-1.656;2023-05-24T03:36:40;1.70;;;0.85;;
26963;SDS011;14521;48.148;-1.656;2023-05-24T03:40:03;1.10;;;0.93;;
26963;SDS011;14521;48.148;-1.656;2023-05-24T03:43:44;1.75;;;0.95;;
26963;SDS011;14521;48.148;-1.656;2023-05-24T03:47:09;1.65;;;0.90;;
26963;SDS011;14521;48.148;-1.656;2023-05-24T03:50:32;0.82;;;0.70;;
26963;SDS011;14521;48.148;-1.656;2023-05-24T03:53:57;1.52;;;0.90;;
26963;SDS011;14521;48.148;-1.656;2023-05-24T03:57:20;1.13;;;0.88;;
26963;SDS011;14521;48.148;-1.656;2023-05-24T04:00:42;1.85;;;0.82;;
26963;SDS011;14521;48.148;-1.656;2023-05-24T04:04:06;0.70;;;0.70;;
26963;SDS011;14521;48.148;-1.656;2023-05-24T04:07:30;1.55;;;0.55;;
26963;SDS011;14521;48.148;-1.656;2023-05-24T04:10:54;3.55;;;0.98;;
26963;SDS011;14521;48.148;-1.656;2023-05-24T04:14:16;0.85;;;0.80;;
26963;SDS011;14521;48.148;-1.656;2023-05-24T04:17:39;1.00;;;0.70;;
26963;SDS011;14521;48.148;-1.656;2023-05-24T04:21:03;0.70;;;0.60;;
26963;SDS011;14521;48.148;-1.656;2023-05-24T04:24:26;1.65;;;1.00;;
26963;SDS011;14521;48.148;-1.656;2023-05-24T04:27:48;2.17;;;0.70;;
26963;SDS011;14521;48.148;-1.656;2023-05-24T04:31:11;3.05;;;0.60;;
26963;SDS011;14521;48.148;-1.656;2023-05-24T04:34:34;1.95;;;0.63;;
26963;SDS011;14521;48.148;-1.656;2023-05-24T04:37:56;1.48;;;0.73;;
26963;SDS011;14521;48.148;-1.656;2023-05-24T04:41:20;2.55;;;0.80;;
26963;SDS011;14521;48.148;-1.656;2023-05-24T04:44:43;1.58;;;0.70;;
26963;SDS011;14521;48.148;-1.656;2023-05-24T04:48:05;1.85;;;1.00;;
26963;SDS011;14521;48.148;-1.656;2023-05-24T04:51:28;1.70;;;0.85;;
26963;SDS011;14521;48.148;-1.656;2023-05-24T04:54:50;0.90;;;0.65;;
26963;SDS011;14521;48.148;-1.656;2023-05-24T04:58:13;3.95;;;0.60;;
26963;SDS011;14521;48.148;-1.656;2023-05-24T05:01:37;1.40;;;0.68;;
26963;SDS011;14521;48.148;-1.656;2023-05-24T05:05:00;0.60;;;0.60;;
26963;SDS011;14521;48.148;-1.656;2023-05-24T05:08:22;0.93;;;0.68;;
26963;SDS011;14521;48.148;-1.656;2023-05-24T05:11:45;1.27;;;0.98;;
26963;SDS011;14521;48.148;-1.656;2023-05-24T05:15:07;2.67;;;0.95;;
26963;SDS011;14521;48.148;-1.656;2023-05-24T05:18:30;3.03;;;0.93;;
26963;SDS011;14521;48.148;-1.656;2023-05-24T05:21:53;0.60;;;0.60;;
26963;SDS011;14521;48.148;-1.656;2023-05-24T05:25:15;1.65;;;1.08;;
26963;SDS011;14521;48.148;-1.656;2023-05-24T05:28:37;4.82;;;0.70;;
26963;SDS011;14521;48.148;-1.656;2023-05-24T05:31:59;8.45;;;0.70;;
26963;SDS011;14521;48.148;-1.656;2023-05-24T05:35:22;7.40;;;0.57;;
26963;SDS011;14521;48.148;-1.656;2023-05-24T05:38:44;1.70;;;0.55;;
26963;SDS011;14521;48.148;-1.656;2023-05-24T05:42:07;1.25;;;0.63;;
26963;SDS011;14521;48.148;-1.656;2023-05-24T05:45:29;3.22;;;1.00;;
26963;SDS011;14521;48.148;-1.656;2023-05-24T05:48:51;5.50;;;0.77;;
26963;SDS011;14521;48.148;-1.656;2023-05-24T05:52:13;1.33;;;0.77;;
26963;SDS011;14521;48.148;-1.656;2023-05-24T05:55:36;1.15;;;0.68;;
26963;SDS011;14521;48.148;-1.656;2023-05-24T05:58:58;2.13;;;0.93;;
26963;SDS011;14521;48.148;-1.656;2023-05-24T06:02:20;1.98;;;0.88;;
26963;SDS011;14521;48.148;-1.656;2023-05-24T06:05:43;0.63;;;0.55;;
26963;SDS011;14521;48.148;-1.656;2023-05-24T06:09:06;1.70;;;0.82;;
26963;SDS011;14521;48.148;-1.656;2023-05-24T06:12:28;1.65;;;0.82;;
26963;SDS011;14521;48.148;-1.656;2023-05-24T06:15:51;2.83;;;0.60;;
26963;SDS011;14521;48.148;-1.656;2023-05-24T06:19:13;0.85;;;0.60;;
26963;SDS011;14521;48.148;-1.656;2023-05-24T06:22:37;1.55;;;0.70;;
26963;SDS011;14521;48.148;-1.656;2023-05-24T06:26:00;1.50;;;1.00;;
26963;SDS011;14521;48.148;-1.656;2023-05-24T06:29:22;2.28;;;0.60;;
26963;SDS011;14521;48.148;-1.656;2023-05-24T06:32:45;1.45;;;0.68;;
26963;SDS011;14521;48.148;-1.656;2023-05-24T06:36:08;1.10;;;0.80;;
26963;SDS011;14521;48.148;-1.656;2023-05-24T06:39:30;1.20;;;0.57;;
26963;SDS011;14521;48.148;-1.656;2023-05-24T06:42:52;1.42;;;0.60;;
26963;SDS011;14521;48.148;-1.656;2023-05-24T06:46:15;6.95;;;1.10;;
26963;SDS011;14521;48.148;-1.656;2023-05-24T06:49:37;2.28;;;0.88;;
26963;SDS011;14521;48.148;-1.656;2023-05-24T06:53:00;5.28;;;0.75;;
26963;SDS011;14521;48.148;-1.656;2023-05-24T06:56:23;4.57;;;0.70;;
26963;SDS011;14521;48.148;-1.656;2023-05-24T06:59:45;0.57;;;0.52;;
26963;SDS011;14521;48.148;-1.656;2023-05-24T07:03:08;0.68;;;0.60;;
26963;SDS011;14521;48.148;-1.656;2023-05-24T07:06:30;3.50;;;0.90;;
26963;SDS011;14521;48.148;-1.656;2023-05-24T07:09:53;0.82;;;0.50;;
26963;SDS011;14521;48.148;-1.656;2023-05-24T07:13:16;1.05;;;0.57;;
26963;SDS011;14521;48.148;-1.656;2023-05-24T07:16:38;5.40;;;0.70;;
26963;SDS011;14521;48.148;-1.656;2023-05-24T07:20:00;0.60;;;0.40;;
26963;SDS011;14521;48.148;-1.656;2023-05-24T07:23:23;1.88;;;0.70;;
26963;SDS011;14521;48.148;-1.656;2023-05-24T07:26:45;2.90;;;0.73;;
26963;SDS011;14521;48.148;-1.656;2023-05-24T07:30:07;2.53;;;0.60;;
26963;SDS011;14521;48.148;-1.656;2023-05-24T07:33:50;1.55;;;0.52;;
26963;SDS011;14521;48.148;-1.656;2023-05-24T07:37:12;1.73;;;0.77;;
26963;SDS011;14521;48.148;-1.656;2023-05-24T07:40:35;1.73;;;0.75;;
26963;SDS011;14521;48.148;-1.656;2023-05-24T07:43:57;1.48;;;0.60;;
26963;SDS011;14521;48.148;-1.656;2023-05-24T07:47:19;0.70;;;0.55;;
26963;SDS011;14521;48.148;-1.656;2023-05-24T07:50:42;1.30;;;0.50;;
26963;SDS011;14521;48.148;-1.656;2023-05-24T07:54:09;2.85;;;0.52;;
26963;SDS011;14521;48.148;-1.656;2023-05-24T07:57:31;23.55;;;2.40;;
26963;SDS011;14521;48.148;-1.656;2023-05-24T08:00:54;16.38;;;3.40;;
26963;SDS011;14521;48.148;-1.656;2023-05-24T08:04:16;12.43;;;2.65;;
26963;SDS011;14521;48.148;-1.656;2023-05-24T08:07:39;9.55;;;2.50;;
26963;SDS011;14521;48.148;-1.656;2023-05-24T08:11:02;7.88;;;2.30;;
26963;SDS011;14521;48.148;-1.656;2023-05-24T08:14:25;12.85;;;2.40;;
26963;SDS011;14521;48.148;-1.656;2023-05-24T08:17:47;10.90;;;2.88;;
26963;SDS011;14521;48.148;-1.656;2023-05-24T08:21:10;7.97;;;2.10;;
26963;SDS011;14521;48.148;-1.656;2023-05-24T08:24:32;6.45;;;1.70;;
26963;SDS011;14521;48.148;-1.656;2023-05-24T08:27:58;12.90;;;2.10;;
26963;SDS011;14521;48.148;-1.656;2023-05-24T08:31:20;9.57;;;1.90;;
26963;SDS011;14521;48.148;-1.656;2023-05-24T08:34:43;9.70;;;1.67;;
26963;SDS011;14521;48.148;-1.656;2023-05-24T08:38:05;4.30;;;1.73;;
26963;SDS011;14521;48.148;-1.656;2023-05-24T08:41:28;9.73;;;1.77;;
26963;SDS011;14521;48.148;-1.656;2023-05-24T08:44:57;5.68;;;1.25;;
26963;SDS011;14521;48.148;-1.656;2023-05-24T08:48:24;3.75;;;1.50;;
26963;SDS011;14521;48.148;-1.656;2023-05-24T08:51:47;6.75;;;1.75;;
26963;SDS011;14521;48.148;-1.656;2023-05-24T08:55:12;4.00;;;1.42;;
26963;SDS011;14521;48.148;-1.656;2023-05-24T08:58:37;2.58;;;1.05;;
26963;SDS011;14521;48.148;-1.656;2023-05-24T09:02:00;3.28;;;1.30;;
26963;SDS011;14521;48.148;-1.656;2023-05-24T09:05:24;7.50;;;1.00;;
26963;SDS011;14521;48.148;-1.656;2023-05-24T09:08:47;4.88;;;1.23;;
26963;SDS011;14521;48.148;-1.656;2023-05-24T09:12:13;2.15;;;0.85;;
26963;SDS011;14521;48.148;-1.656;2023-05-24T09:15:57;4.13;;;0.90;;
26963;SDS011;14521;48.148;-1.656;2023-05-24T09:19:21;4.13;;;1.15;;
26963;SDS011;14521;48.148;-1.656;2023-05-24T09:22:44;2.15;;;0.95;;
26963;SDS011;14521;48.148;-1.656;2023-05-24T09:26:12;1.38;;;0.70;;
26963;SDS011;14521;48.148;-1.656;2023-05-24T09:29:35;1.73;;;0.90;;
26963;SDS011;14521;48.148;-1.656;2023-05-24T09:32:58;5.80;;;0.80;;
26963;SDS011;14521;48.148;-1.656;2023-05-24T09:36:22;1.48;;;0.60;;
26963;SDS011;14521;48.148;-1.656;2023-05-24T09:39:45;3.67;;;0.88;;
26963;SDS011;14521;48.148;-1.656;2023-05-24T09:43:18;3.40;;;0.75;;
26963;SDS011;14521;48.148;-1.656;2023-05-24T09:46:40;3.13;;;0.70;;
26963;SDS011;14521;48.148;-1.656;2023-05-24T09:50:04;2.92;;;0.77;;
26963;SDS011;14521;48.148;-1.656;2023-05-24T09:53:33;2.88;;;1.05;;
26963;SDS011;14521;48.148;-1.656;2023-05-24T09:56:58;3.58;;;0.60;;
26963;SDS011;14521;48.148;-1.656;2023-05-24T10:00:25;6.05;;;0.70;;
26963;SDS011;14521;48.148;-1.656;2023-05-24T10:03:55;2.53;;;0.65;;
26963;SDS011;14521;48.148;-1.656;2023-05-24T10:07:19;1.25;;;0.90;;
26963;SDS011;14521;48.148;-1.656;2023-05-24T10:10:41;0.98;;;0.73;;
26963;SDS011;14521;48.148;-1.656;2023-05-24T10:14:07;1.50;;;1.05;;
26963;SDS011;14521;48.148;-1.656;2023-05-24T10:17:30;2.00;;;0.77;;
26963;SDS011;14521;48.148;-1.656;2023-05-24T10:20:53;2.25;;;0.63;;
26963;SDS011;14521;48.148;-1.656;2023-05-24T10:24:19;2.33;;;0.60;;
26963;SDS011;14521;48.148;-1.656;2023-05-24T10:27:44;3.22;;;0.90;;
26963;SDS011;14521;48.148;-1.656;2023-05-24T10:31:10;1.00;;;0.52;;
26963;SDS011;14521;48.148;-1.656;2023-05-24T10:34:36;1.80;;;0.70;;
26963;SDS011;14521;48.148;-1.656;2023-05-24T10:38:03;0.80;;;0.57;;
26963;SDS011;14521;48.148;-1.656;2023-05-24T10:41:27;0.55;;;0.40;;
26963;SDS011;14521;48.148;-1.656;2023-05-24T10:44:50;3.00;;;0.70;;
26963;SDS011;14521;48.148;-1.656;2023-05-24T10:51:35;1.17;;;1.00;;
26963;SDS011;14521;48.148;-1.656;2023-05-24T10:55:02;5.57;;;1.80;;
26963;SDS011;14521;48.148;-1.656;2023-05-24T11:01:58;5.30;;;1.30;;
26963;SDS011;14521;48.148;-1.656;2023-05-24T11:05:21;2.83;;;1.23;;
26963;SDS011;14521;48.148;-1.656;2023-05-24T11:08:45;3.22;;;1.15;;
26963;SDS011;14521;48.148;-1.656;2023-05-24T11:12:07;6.15;;;1.20;;
26963;SDS011;14521;48.148;-1.656;2023-05-24T11:15:29;3.33;;;1.20;;
26963;SDS011;14521;48.148;-1.656;2023-05-24T11:18:53;1.70;;;0.93;;
26963;SDS011;14521;48.148;-1.656;2023-05-24T11:22:16;5.07;;;0.88;;
26963;SDS011;14521;48.148;-1.656;2023-05-24T11:25:41;4.82;;;0.88;;
26963;SDS011;14521;48.148;-1.656;2023-05-24T11:29:04;4.15;;;1.20;;
26963;SDS011;14521;48.148;-1.656;2023-05-24T11:32:28;5.22;;;0.75;;
26963;SDS011;14521;48.148;-1.656;2023-05-24T11:35:50;1.73;;;0.88;;
26963;SDS011;14521;48.148;-1.656;2023-05-24T11:39:15;1.40;;;1.25;;
26963;SDS011;14521;48.148;-1.656;2023-05-24T11:42:38;1.75;;;0.73;;
26963;SDS011;14521;48.148;-1.656;2023-05-24T11:46:01;0.70;;;0.70;;
26963;SDS011;14521;48.148;-1.656;2023-05-24T11:49:24;2.13;;;0.75;;
26963;SDS011;14521;48.148;-1.656;2023-05-24T11:52:47;1.10;;;0.80;;
26963;SDS011;14521;48.148;-1.656;2023-05-24T11:56:09;1.63;;;0.80;;
26963;SDS011;14521;48.148;-1.656;2023-05-24T11:59:31;2.33;;;0.82;;
26963;SDS011;14521;48.148;-1.656;2023-05-24T12:06:22;3.15;;;1.17;;
26963;SDS011;14521;48.148;-1.656;2023-05-24T12:09:44;3.90;;;0.50;;
26963;SDS011;14521;48.148;-1.656;2023-05-24T12:13:20;0.88;;;0.60;;
26963;SDS011;14521;48.148;-1.656;2023-05-24T12:16:46;0.60;;;0.60;;
26963;SDS011;14521;48.148;-1.656;2023-05-24T12:20:09;1.15;;;0.70;;
26963;SDS011;14521;48.148;-1.656;2023-05-24T12:23:33;1.27;;;0.88;;
26963;SDS011;14521;48.148;-1.656;2023-05-24T12:26:57;1.15;;;0.90;;
26963;SDS011;14521;48.148;-1.656;2023-05-24T12:30:26;1.45;;;1.00;;
26963;SDS011;14521;48.148;-1.656;2023-05-24T12:33:49;1.75;;;0.80;;
26963;SDS011;14521;48.148;-1.656;2023-05-24T12:37:14;0.88;;;0.88;;
26963;SDS011;14521;48.148;-1.656;2023-05-24T12:40:40;1.58;;;0.90;;
26963;SDS011;14521;48.148;-1.656;2023-05-24T12:44:05;1.10;;;0.88;;
26963;SDS011;14521;48.148;-1.656;2023-05-24T12:47:28;1.08;;;0.70;;
26963;SDS011;14521;48.148;-1.656;2023-05-24T12:50:50;1.35;;;0.65;;
26963;SDS011;14521;48.148;-1.656;2023-05-24T12:54:13;2.00;;;0.80;;
26963;SDS011;14521;48.148;-1.656;2023-05-24T12:57:35;0.80;;;0.80;;
26963;SDS011;14521;48.148;-1.656;2023-05-24T13:00:57;1.08;;;0.73;;
26963;SDS011;14521;48.148;-1.656;2023-05-24T13:04:21;1.85;;;1.40;;
26963;SDS011;14521;48.148;-1.656;2023-05-24T13:07:45;1.02;;;0.93;;
26963;SDS011;14521;48.148;-1.656;2023-05-24T13:11:07;1.10;;;0.77;;
26963;SDS011;14521;48.148;-1.656;2023-05-24T13:14:29;2.83;;;0.90;;
26963;SDS011;14521;48.148;-1.656;2023-05-24T13:17:52;1.63;;;1.00;;
26963;SDS011;14521;48.148;-1.656;2023-05-24T13:21:14;1.08;;;0.95;;
26963;SDS011;14521;48.148;-1.656;2023-05-24T13:24:37;1.50;;;0.80;;
26963;SDS011;14521;48.148;-1.656;2023-05-24T13:28:00;1.67;;;1.00;;
26963;SDS011;14521;48.148;-1.656;2023-05-24T13:31:23;1.42;;;0.82;;
26963;SDS011;14521;48.148;-1.656;2023-05-24T13:34:46;2.83;;;1.08;;
26963;SDS011;14521;48.148;-1.656;2023-05-24T13:38:08;3.10;;;0.75;;
26963;SDS011;14521;48.148;-1.656;2023-05-24T13:41:30;3.63;;;1.35;;
26963;SDS011;14521;48.148;-1.656;2023-05-24T13:44:53;1.50;;;1.13;;
26963;SDS011;14521;48.148;-1.656;2023-05-24T13:48:16;2.78;;;1.15;;
26963;SDS011;14521;48.148;-1.656;2023-05-24T13:51:39;7.20;;;1.23;;
26963;SDS011;14521;48.148;-1.656;2023-05-24T13:55:02;1.70;;;1.25;;
26963;SDS011;14521;48.148;-1.656;2023-05-24T13:58:25;6.32;;;1.40;;
26963;SDS011;14521;48.148;-1.656;2023-05-24T14:01:48;2.55;;;1.30;;
26963;SDS011;14521;48.148;-1.656;2023-05-24T14:05:10;2.53;;;1.42;;
26963;SDS011;14521;48.148;-1.656;2023-05-24T14:08:47;3.38;;;1.20;;
26963;SDS011;14521;48.148;-1.656;2023-05-24T14:12:09;3.30;;;1.50;;
26963;SDS011;14521;48.148;-1.656;2023-05-24T14:15:34;1.75;;;1.30;;
26963;SDS011;14521;48.148;-1.656;2023-05-24T14:18:56;4.40;;;1.60;;
26963;SDS011;14521;48.148;-1.656;2023-05-24T14:22:19;1.88;;;1.42;;
26963;SDS011;14521;48.148;-1.656;2023-05-24T14:25:45;3.42;;;1.30;;
26963;SDS011;14521;48.148;-1.656;2023-05-24T14:29:08;2.75;;;1.30;;
26963;SDS011;14521;48.148;-1.656;2023-05-24T14:32:30;3.90;;;1.50;;
26963;SDS011;14521;48.148;-1.656;2023-05-24T14:35:52;3.22;;;1.52;;
26963;SDS011;14521;48.148;-1.656;2023-05-24T14:39:15;2.83;;;1.85;;
26963;SDS011;14521;48.148;-1.656;2023-05-24T14:42:37;10.15;;;2.55;;
26963;SDS011;14521;48.148;-1.656;2023-05-24T14:45:59;5.05;;;1.70;;
26963;SDS011;14521;48.148;-1.656;2023-05-24T14:49:21;8.23;;;1.83;;
26963;SDS011;14521;48.148;-1.656;2023-05-24T14:52:44;8.15;;;1.70;;
26963;SDS011;14521;48.148;-1.656;2023-05-24T14:56:06;10.68;;;2.40;;
26963;SDS011;14521;48.148;-1.656;2023-05-24T14:59:30;12.30;;;3.75;;
26963;SDS011;14521;48.148;-1.656;2023-05-24T15:02:52;5.75;;;2.13;;
26963;SDS011;14521;48.148;-1.656;2023-05-24T15:06:15;4.95;;;1.90;;
26963;SDS011;14521;48.148;-1.656;2023-05-24T15:09:38;8.70;;;2.03;;
26963;SDS011;14521;48.148;-1.656;2023-05-24T15:13:00;3.25;;;1.55;;
26963;SDS011;14521;48.148;-1.656;2023-05-24T15:16:25;5.38;;;1.70;;
26963;SDS011;14521;48.148;-1.656;2023-05-24T15:19:47;1.95;;;1.40;;
26963;SDS011;14521;48.148;-1.656;2023-05-24T15:23:10;3.58;;;1.50;;
26963;SDS011;14521;48.148;-1.656;2023-05-24T15:26:32;7.55;;;1.63;;
26963;SDS011;14521;48.148;-1.656;2023-05-24T15:29:54;8.20;;;1.80;;
26963;SDS011;14521;48.148;-1.656;2023-05-24T15:36:43;2.50;;;1.77;;
26963;SDS011;14521;48.148;-1.656;2023-05-24T15:40:07;2.45;;;1.48;;
26963;SDS011;14521;48.148;-1.656;2023-05-24T15:43:30;2.10;;;1.48;;
26963;SDS011;14521;48.148;-1.656;2023-05-24T15:46:52;3.88;;;2.25;;
26963;SDS011;14521;48.148;-1.656;2023-05-24T15:50:14;4.53;;;1.75;;
26963;SDS011;14521;48.148;-1.656;2023-05-24T15:53:37;2.45;;;1.75;;
26963;SDS011;14521;48.148;-1.656;2023-05-24T15:56:59;2.00;;;1.77;;
26963;SDS011;14521;48.148;-1.656;2023-05-24T16:00:22;3.70;;;1.65;;
26963;SDS011;14521;48.148;-1.656;2023-05-24T16:03:45;2.53;;;1.48;;
26963;SDS011;14521;48.148;-1.656;2023-05-24T16:07:07;3.80;;;1.83;;
26963;SDS011;14521;48.148;-1.656;2023-05-24T16:10:30;2.65;;;1.67;;
26963;SDS011;14521;48.148;-1.656;2023-05-24T16:13:52;5.05;;;1.70;;
26963;SDS011;14521;48.148;-1.656;2023-05-24T16:17:15;5.18;;;2.10;;
26963;SDS011;14521;48.148;-1.656;2023-05-24T16:20:37;3.72;;;1.75;;
26963;SDS011;14521;48.148;-1.656;2023-05-24T16:24:00;4.10;;;1.70;;
26963;SDS011;14521;48.148;-1.656;2023-05-24T16:27:24;9.05;;;1.65;;
26963;SDS011;14521;48.148;-1.656;2023-05-24T16:30:46;7.45;;;1.83;;
26963;SDS011;14521;48.148;-1.656;2023-05-24T16:34:08;7.30;;;2.15;;
26963;SDS011;14521;48.148;-1.656;2023-05-24T16:37:31;5.63;;;1.90;;
26963;SDS011;14521;48.148;-1.656;2023-05-24T16:40:53;3.60;;;1.77;;
26963;SDS011;14521;48.148;-1.656;2023-05-24T16:44:16;11.27;;;2.30;;
26963;SDS011;14521;48.148;-1.656;2023-05-24T16:47:38;9.18;;;2.58;;
26963;SDS011;14521;48.148;-1.656;2023-05-24T16:51:01;4.82;;;2.05;;
26963;SDS011;14521;48.148;-1.656;2023-05-24T16:54:23;3.97;;;1.80;;
26963;SDS011;14521;48.148;-1.656;2023-05-24T16:57:46;9.90;;;2.15;;
26963;SDS011;14521;48.148;-1.656;2023-05-24T17:01:08;7.20;;;1.83;;
26963;SDS011;14521;48.148;-1.656;2023-05-24T17:04:30;7.65;;;1.73;;
26963;SDS011;14521;48.148;-1.656;2023-05-24T17:07:53;6.65;;;2.15;;
26963;SDS011;14521;48.148;-1.656;2023-05-24T17:11:15;5.55;;;1.90;;
26963;SDS011;14521;48.148;-1.656;2023-05-24T17:14:40;7.68;;;1.92;;
26963;SDS011;14521;48.148;-1.656;2023-05-24T17:18:02;5.35;;;2.10;;
26963;SDS011;14521;48.148;-1.656;2023-05-24T17:21:26;11.02;;;1.98;;
26963;SDS011;14521;48.148;-1.656;2023-05-24T17:24:50;6.25;;;1.80;;
26963;SDS011;14521;48.148;-1.656;2023-05-24T17:28:12;5.18;;;2.10;;
26963;SDS011;14521;48.148;-1.656;2023-05-24T17:31:35;5.40;;;2.30;;
26963;SDS011;14521;48.148;-1.656;2023-05-24T17:34:58;4.47;;;1.63;;
26963;SDS011;14521;48.148;-1.656;2023-05-24T17:38:20;4.22;;;2.08;;
26963;SDS011;14521;48.148;-1.656;2023-05-24T17:41:42;4.75;;;1.88;;
26963;SDS011;14521;48.148;-1.656;2023-05-24T17:45:07;3.17;;;2.15;;
26963;SDS011;14521;48.148;-1.656;2023-05-24T17:48:30;3.15;;;1.80;;
26963;SDS011;14521;48.148;-1.656;2023-05-24T17:51:53;3.20;;;1.60;;
26963;SDS011;14521;48.148;-1.656;2023-05-24T17:55:16;5.68;;;2.17;;
26963;SDS011;14521;48.148;-1.656;2023-05-24T17:58:38;4.00;;;1.70;;
26963;SDS011;14521;48.148;-1.656;2023-05-24T18:02:01;4.32;;;1.80;;
26963;SDS011;14521;48.148;-1.656;2023-05-24T18:05:23;5.07;;;2.00;;
26963;SDS011;14521;48.148;-1.656;2023-05-24T18:08:46;3.85;;;2.10;;
26963;SDS011;14521;48.148;-1.656;2023-05-24T18:12:08;2.78;;;1.63;;
26963;SDS011;14521;48.148;-1.656;2023-05-24T18:15:32;3.97;;;1.83;;
26963;SDS011;14521;48.148;-1.656;2023-05-24T18:18:55;2.65;;;1.77;;
26963;SDS011;14521;48.148;-1.656;2023-05-24T18:22:19;4.05;;;1.70;;
26963;SDS011;14521;48.148;-1.656;2023-05-24T18:25:42;3.50;;;1.90;;
26963;SDS011;14521;48.148;-1.656;2023-05-24T18:29:05;3.15;;;1.63;;
26963;SDS011;14521;48.148;-1.656;2023-05-24T18:32:28;3.28;;;1.70;;
26963;SDS011;14521;48.148;-1.656;2023-05-24T18:35:50;6.05;;;1.58;;
26963;SDS011;14521;48.148;-1.656;2023-05-24T18:39:12;4.18;;;2.00;;
26963;SDS011;14521;48.148;-1.656;2023-05-24T18:42:35;4.28;;;1.70;;
26963;SDS011;14521;48.148;-1.656;2023-05-24T18:45:57;3.50;;;2.22;;
26963;SDS011;14521;48.148;-1.656;2023-05-24T18:49:19;2.33;;;1.60;;
26963;SDS011;14521;48.148;-1.656;2023-05-24T18:52:42;2.67;;;1.75;;
26963;SDS011;14521;48.148;-1.656;2023-05-24T18:56:04;3.10;;;2.00;;
26963;SDS011;14521;48.148;-1.656;2023-05-24T18:59:27;3.35;;;1.95;;
26963;SDS011;14521;48.148;-1.656;2023-05-24T19:02:54;3.65;;;2.25;;
26963;SDS011;14521;48.148;-1.656;2023-05-24T19:06:17;4.13;;;1.83;;
26963;SDS011;14521;48.148;-1.656;2023-05-24T19:09:40;9.10;;;2.00;;
26963;SDS011;14521;48.148;-1.656;2023-05-24T19:13:02;3.53;;;1.95;;
26963;SDS011;14521;48.148;-1.656;2023-05-24T19:16:24;2.53;;;1.75;;
26963;SDS011;14521;48.148;-1.656;2023-05-24T19:19:47;4.57;;;2.28;;
26963;SDS011;14521;48.148;-1.656;2023-05-24T19:23:09;6.45;;;2.10;;
26963;SDS011;14521;48.148;-1.656;2023-05-24T19:26:31;4.70;;;2.42;;
26963;SDS011;14521;48.148;-1.656;2023-05-24T19:29:54;3.92;;;2.45;;
26963;SDS011;14521;48.148;-1.656;2023-05-24T19:33:16;5.47;;;2.72;;
26963;SDS011;14521;48.148;-1.656;2023-05-24T19:36:39;5.32;;;2.80;;
26963;SDS011;14521;48.148;-1.656;2023-05-24T19:40:01;3.42;;;2.88;;
26963;SDS011;14521;48.148;-1.656;2023-05-24T19:43:24;8.32;;;3.00;;
26963;SDS011;14521;48.148;-1.656;2023-05-24T19:46:46;3.78;;;2.17;;
26963;SDS011;14521;48.148;-1.656;2023-05-24T19:50:08;3.50;;;2.42;;
26963;SDS011;14521;48.148;-1.656;2023-05-24T19:53:31;5.15;;;2.63;;
26963;SDS011;14521;48.148;-1.656;2023-05-24T19:56:54;3.65;;;2.45;;
26963;SDS011;14521;48.148;-1.656;2023-05-24T20:00:18;4.60;;;2.40;;
26963;SDS011;14521;48.148;-1.656;2023-05-24T20:03:40;4.30;;;2.40;;
26963;SDS011;14521;48.148;-1.656;2023-05-24T20:07:09;2.35;;;2.13;;
26963;SDS011;14521;48.148;-1.656;2023-05-24T20:10:31;4.60;;;2.35;;
26963;SDS011;14521;48.148;-1.656;2023-05-24T20:13:56;4.10;;;2.20;;
26963;SDS011;14521;48.148;-1.656;2023-05-24T20:17:19;8.80;;;2.60;;
26963;SDS011;14521;48.148;-1.656;2023-05-24T20:20:42;5.10;;;2.22;;
26963;SDS011;14521;48.148;-1.656;2023-05-24T20:24:04;4.28;;;2.60;;
26963;SDS011;14521;48.148;-1.656;2023-05-24T20:27:27;3.88;;;2.65;;
26963;SDS011;14521;48.148;-1.656;2023-05-24T20:30:49;4.10;;;2.45;;
26963;SDS011;14521;48.148;-1.656;2023-05-24T20:34:12;17.67;;;2.90;;